createdAt,value
2022-12-08T00:00:24.284Z,0.99
2022-12-08T00:01:24.324Z,0.98
2022-12-08T00:02:24.487Z,0.98
2022-12-08T00:03:24.525Z,0.96
2022-12-08T00:04:24.362Z,0.95
2022-12-08T00:05:24.387Z,0.91
2022-12-08T00:06:24.406Z,0.87
2022-12-08T00:07:24.408Z,0.86
2022-12-08T00:08:24.497Z,0.86
2022-12-08T00:09:24.446Z,0.84
2022-12-08T00:10:48.457Z,0.84
2022-12-08T00:11:24.509Z,0.88
2022-12-08T00:12:24.495Z,0.95
2022-12-08T00:13:24.516Z,0.94
2022-12-08T00:14:24.537Z,0.92
2022-12-08T00:15:24.561Z,0.92
2022-12-08T00:16:24.627Z,0.86
2022-12-08T00:17:24.592Z,0.84
2022-12-08T00:18:24.615Z,0.83
2022-12-08T00:19:24.641Z,0.84
2022-12-08T00:20:24.649Z,0.86
2022-12-08T00:21:24.692Z,0.86
2022-12-08T00:22:24.695Z,0.87
2022-12-08T00:23:24.710Z,0.87
2022-12-08T00:24:24.725Z,0.84
2022-12-08T00:25:24.754Z,0.88
2022-12-08T00:26:24.785Z,0.87
2022-12-08T00:27:24.788Z,0.86
2022-12-08T00:28:24.811Z,0.86
2022-12-08T00:29:24.831Z,0.87
2022-12-08T00:30:24.848Z,0.88
2022-12-08T00:31:24.968Z,0.91
2022-12-08T00:32:24.890Z,0.91
2022-12-08T00:33:24.917Z,0.91
2022-12-08T00:34:24.928Z,0.91
2022-12-08T00:35:24.950Z,0.88
2022-12-08T00:36:24.975Z,0.84
2022-12-08T00:37:24.980Z,0.84
2022-12-08T00:38:24.995Z,0.91
2022-12-08T00:39:25.024Z,0.94
2022-12-08T00:40:25.031Z,0.88
2022-12-08T00:41:25.069Z,0.88
2022-12-08T00:42:25.068Z,0.87
2022-12-08T00:43:25.088Z,0.87
2022-12-08T00:44:25.109Z,0.87
2022-12-08T00:45:25.130Z,0.88
2022-12-08T00:46:25.244Z,0.84
2022-12-08T00:47:25.303Z,0.84
2022-12-08T00:48:25.171Z,0.83
2022-12-08T00:49:25.194Z,0.81
2022-12-08T00:50:25.212Z,0.84
2022-12-08T00:51:25.364Z,0.81
2022-12-08T00:52:25.253Z,0.84
2022-12-08T00:53:25.274Z,0.81
2022-12-08T00:54:25.292Z,0.83
2022-12-08T00:55:25.316Z,0.84
2022-12-08T00:56:25.352Z,0.83
2022-12-08T00:57:25.364Z,0.84
2022-12-08T00:58:25.375Z,0.83
2022-12-08T00:59:25.410Z,0.84
2022-12-08T01:00:25.418Z,0.83
2022-12-08T01:01:25.568Z,0.86
2022-12-08T01:02:25.448Z,0.84
2022-12-08T01:03:25.632Z,0.84
2022-12-08T01:04:25.502Z,0.84
2022-12-08T01:05:25.504Z,0.86
2022-12-08T01:06:25.538Z,0.88
2022-12-08T01:07:25.543Z,0.84
2022-12-08T01:08:25.626Z,0.83
2022-12-08T01:09:25.586Z,0.80
2022-12-08T01:10:25.605Z,0.81
2022-12-08T01:11:25.649Z,0.84
2022-12-08T01:12:25.636Z,0.83
2022-12-08T01:13:25.659Z,0.84
2022-12-08T01:14:25.682Z,0.86
2022-12-08T01:15:25.700Z,0.88
2022-12-08T01:16:25.811Z,0.91
2022-12-08T01:17:25.724Z,0.91
2022-12-08T01:18:25.739Z,0.92
2022-12-08T01:19:25.762Z,0.92
2022-12-08T01:20:25.776Z,0.88
2022-12-08T01:21:25.818Z,0.86
2022-12-08T01:22:25.809Z,0.84
2022-12-08T01:23:25.832Z,0.84
2022-12-08T01:24:25.839Z,0.87
2022-12-08T01:25:25.871Z,0.88
2022-12-08T01:26:25.897Z,0.88
2022-12-08T01:27:25.906Z,0.87
2022-12-08T01:28:25.918Z,0.87
2022-12-08T01:29:25.939Z,0.88
2022-12-08T01:30:26.020Z,0.86
2022-12-08T01:31:26.046Z,0.84
2022-12-08T01:32:25.993Z,0.86
2022-12-08T01:33:26.002Z,0.84
2022-12-08T01:34:26.016Z,0.81
2022-12-08T01:35:26.044Z,0.81
2022-12-08T01:36:26.076Z,0.83
2022-12-08T01:37:26.080Z,0.83
2022-12-08T01:38:26.100Z,0.84
2022-12-08T01:39:26.110Z,0.84
2022-12-08T01:40:26.126Z,0.84
2022-12-08T01:41:26.186Z,0.83
2022-12-08T01:42:26.156Z,0.83
2022-12-08T01:43:26.179Z,0.84
2022-12-08T01:44:26.195Z,0.83
2022-12-08T01:45:26.216Z,0.87
2022-12-08T01:46:26.367Z,0.87
2022-12-08T01:47:26.251Z,0.87
2022-12-08T01:48:26.365Z,0.87
2022-12-08T01:49:26.285Z,0.88
2022-12-08T01:50:26.307Z,0.92
2022-12-08T01:51:26.341Z,0.94
2022-12-08T01:52:26.356Z,0.94
2022-12-08T01:53:26.352Z,0.91
2022-12-08T01:54:26.368Z,0.84
2022-12-08T01:55:26.394Z,0.84
2022-12-08T01:56:26.430Z,0.83
2022-12-08T01:57:26.430Z,0.83
2022-12-08T01:58:26.442Z,0.81
2022-12-08T01:59:26.460Z,0.83
2022-12-08T02:00:26.476Z,0.81
2022-12-08T02:01:26.640Z,0.84
2022-12-08T02:02:26.573Z,0.83
2022-12-08T02:03:26.534Z,0.84
2022-12-08T02:04:26.554Z,0.84
2022-12-08T02:05:26.565Z,0.86
2022-12-08T02:06:26.594Z,0.84
2022-12-08T02:07:26.596Z,0.84
2022-12-08T02:08:26.742Z,0.83
2022-12-08T02:09:26.640Z,0.84
2022-12-08T02:10:26.658Z,0.84
2022-12-08T02:11:26.693Z,0.81
2022-12-08T02:12:26.693Z,0.83
2022-12-08T02:13:26.706Z,0.83
2022-12-08T02:14:26.722Z,0.80
2022-12-08T02:15:26.746Z,0.83
2022-12-08T02:16:26.867Z,0.83
2022-12-08T02:17:26.782Z,0.86
2022-12-08T02:18:26.781Z,0.88
2022-12-08T02:19:31.366Z,0.87
2022-12-08T02:20:26.818Z,0.84
2022-12-08T02:21:26.866Z,0.84
2022-12-08T02:22:26.855Z,0.84
2022-12-08T02:23:26.873Z,0.84
2022-12-08T02:24:26.888Z,0.86
2022-12-08T02:25:26.910Z,0.87
2022-12-08T02:26:26.948Z,0.84
2022-12-08T02:27:26.953Z,0.81
2022-12-08T02:28:26.977Z,0.80
2022-12-08T02:29:26.990Z,0.78
2022-12-08T02:30:27.075Z,0.78
2022-12-08T02:31:27.127Z,0.78
2022-12-08T02:32:27.042Z,0.78
2022-12-08T02:33:27.068Z,0.78
2022-12-08T02:34:27.084Z,0.78
2022-12-08T02:35:27.097Z,0.78
2022-12-08T02:36:27.133Z,0.78
2022-12-08T02:37:27.137Z,0.78
2022-12-08T02:38:27.156Z,0.78
2022-12-08T02:39:27.178Z,0.77
2022-12-08T02:40:27.184Z,0.76
2022-12-08T02:41:27.229Z,0.77
2022-12-08T02:42:27.216Z,0.77
2022-12-08T02:43:27.230Z,0.77
2022-12-08T02:44:27.247Z,0.78
2022-12-08T02:45:27.273Z,0.78
2022-12-08T02:46:27.341Z,0.78
2022-12-08T02:48:22.337Z,0.76
2022-12-08T02:49:23.356Z,0.76
2022-12-08T02:50:23.386Z,0.73
2022-12-08T02:51:23.406Z,0.70
2022-12-08T02:52:23.408Z,0.74
2022-12-08T02:53:23.430Z,0.80
2022-12-08T02:54:23.490Z,0.78
2022-12-08T02:55:23.464Z,0.78
2022-12-08T02:56:23.507Z,0.76
2022-12-08T02:57:23.493Z,0.76
2022-12-08T02:58:23.516Z,0.74
2022-12-08T02:59:23.534Z,0.74
2022-12-08T03:00:23.561Z,0.74
2022-12-08T03:01:23.634Z,0.74
2022-12-08T03:02:23.698Z,0.74
2022-12-08T03:03:23.602Z,0.74
2022-12-08T03:04:23.632Z,0.70
2022-12-08T03:05:23.640Z,0.73
2022-12-08T03:06:23.669Z,0.74
2022-12-08T03:07:23.666Z,0.73
2022-12-08T03:08:23.761Z,0.70
2022-12-08T03:09:23.707Z,0.70
2022-12-08T03:10:23.732Z,0.69
2022-12-08T03:11:23.748Z,0.70
2022-12-08T03:12:23.764Z,0.70
2022-12-08T03:13:23.805Z,0.70
2022-12-08T03:14:23.799Z,0.73
2022-12-08T03:15:23.815Z,0.73
2022-12-08T03:16:23.989Z,0.74
2022-12-08T03:17:23.849Z,0.69
2022-12-08T03:18:23.871Z,0.70
2022-12-08T03:19:23.885Z,0.68
2022-12-08T03:20:23.918Z,0.73
2022-12-08T03:21:23.924Z,0.73
2022-12-08T03:22:23.944Z,0.69
2022-12-08T03:23:23.962Z,0.70
2022-12-08T03:24:23.978Z,0.69
2022-12-08T03:25:23.997Z,0.68
2022-12-08T03:26:24.036Z,0.66
2022-12-08T03:27:24.040Z,0.66
2022-12-08T03:28:24.054Z,0.65
2022-12-08T03:29:24.070Z,0.69
2022-12-08T03:30:24.096Z,0.65
2022-12-08T03:31:24.229Z,0.65
2022-12-08T03:32:24.143Z,0.62
2022-12-08T03:33:24.152Z,0.62
2022-12-08T03:34:24.173Z,0.60
2022-12-08T03:35:24.196Z,0.58
2022-12-08T03:36:24.224Z,0.58
2022-12-08T03:37:24.216Z,0.55
2022-12-08T03:38:24.239Z,0.52
2022-12-08T03:39:24.258Z,0.56
2022-12-08T03:40:24.276Z,0.56
2022-12-08T03:41:24.331Z,0.56
2022-12-08T03:42:24.315Z,0.55
2022-12-08T03:43:24.328Z,0.52
2022-12-08T03:44:24.352Z,0.50
2022-12-08T03:45:24.463Z,0.52
2022-12-08T03:46:58.921Z,0.50
2022-12-08T03:47:59.953Z,0.52
2022-12-08T03:48:59.966Z,0.52
2022-12-08T03:49:59.991Z,0.47
2022-12-08T03:50:59.997Z,0.47
2022-12-08T03:52:00.032Z,0.46
2022-12-08T03:53:00.034Z,0.46
2022-12-08T03:54:00.072Z,0.44
2022-12-08T03:55:00.073Z,0.44
2022-12-08T03:56:00.093Z,0.41
2022-12-08T03:57:00.108Z,0.43
2022-12-08T03:58:00.131Z,0.40
2022-12-08T03:59:00.140Z,0.40
2022-12-08T04:00:00.162Z,0.36
2022-12-08T04:01:00.178Z,0.34
2022-12-08T04:02:00.314Z,0.36
2022-12-08T04:03:00.371Z,0.41
2022-12-08T04:04:00.228Z,0.46
2022-12-08T04:05:00.245Z,0.50
2022-12-08T04:06:00.268Z,0.55
2022-12-08T04:07:00.280Z,0.55
2022-12-08T04:08:00.412Z,0.52
2022-12-08T04:09:00.304Z,0.47
2022-12-08T04:10:00.327Z,0.47
2022-12-08T04:11:00.341Z,0.46
2022-12-08T04:12:00.366Z,0.46
2022-12-08T04:13:00.372Z,0.44
2022-12-08T04:14:00.396Z,0.49
2022-12-08T04:15:00.415Z,0.52
2022-12-08T04:16:00.511Z,0.50
2022-12-08T04:17:00.447Z,0.50
2022-12-08T04:18:00.468Z,0.46
2022-12-08T04:19:00.484Z,0.44
2022-12-08T04:20:00.524Z,0.43
2022-12-08T04:21:00.518Z,0.41
2022-12-08T04:22:00.542Z,0.41
2022-12-08T04:23:00.559Z,0.37
2022-12-08T04:24:01.531Z,0.37
2022-12-08T04:25:00.597Z,0.39
2022-12-08T04:26:00.621Z,0.40
2022-12-08T04:27:00.637Z,0.40
2022-12-08T04:28:00.660Z,0.41
2022-12-08T04:29:00.683Z,0.40
2022-12-08T04:30:00.693Z,0.37
2022-12-08T04:31:00.806Z,0.39
2022-12-08T04:32:00.740Z,0.37
2022-12-08T04:33:00.741Z,0.37
2022-12-08T04:34:00.759Z,0.36
2022-12-08T04:35:00.777Z,0.32
2022-12-08T04:36:00.801Z,0.32
2022-12-08T04:37:00.817Z,0.31
2022-12-08T04:38:00.840Z,0.36
2022-12-08T04:39:00.856Z,0.31
2022-12-08T04:40:00.986Z,0.23
2022-12-08T04:41:00.888Z,0.22
2022-12-08T04:42:00.930Z,0.19
2022-12-08T04:43:00.927Z,0.18
2022-12-08T04:44:00.952Z,0.12
2022-12-08T04:45:00.959Z,-0.06
2022-12-08T04:46:00.988Z,-0.23
2022-12-08T04:47:01.066Z,-0.35
2022-12-08T04:48:01.013Z,-0.38
2022-12-08T04:49:01.027Z,-0.41
2022-12-08T04:50:01.132Z,-0.41
2022-12-08T04:51:01.057Z,-0.36
2022-12-08T04:52:01.101Z,-0.29
2022-12-08T04:53:01.088Z,-0.21
2022-12-08T04:54:01.105Z,-0.17
2022-12-08T04:55:01.117Z,-0.10
2022-12-08T04:56:01.133Z,-0.08
2022-12-08T04:57:01.160Z,-0.03
2022-12-08T04:58:01.163Z,-0.03
2022-12-08T04:59:01.175Z,-0.03
2022-12-08T05:00:01.337Z,-0.06
2022-12-08T05:01:01.266Z,-0.06
2022-12-08T05:02:01.371Z,-0.06
2022-12-08T05:03:01.299Z,-0.07
2022-12-08T05:04:01.246Z,-0.11
2022-12-08T05:05:01.266Z,-0.18
2022-12-08T05:06:01.280Z,-0.25
2022-12-08T05:07:01.313Z,-0.26
2022-12-08T05:08:01.410Z,-0.35
2022-12-08T05:09:01.316Z,-0.54
2022-12-08T05:10:01.592Z,-0.68
2022-12-08T05:11:01.343Z,-0.72
2022-12-08T05:12:01.382Z,-0.68
2022-12-08T05:13:01.374Z,-0.64
2022-12-08T05:14:01.392Z,-0.67
2022-12-08T05:15:01.405Z,-0.67
2022-12-08T05:16:01.470Z,-0.70
2022-12-08T05:17:06.226Z,-0.74
2022-12-08T05:18:01.460Z,-0.74
2022-12-08T05:19:01.458Z,-0.71
2022-12-08T05:20:01.817Z,-0.74
2022-12-08T05:21:01.480Z,-0.82
2022-12-08T05:22:01.516Z,-0.85
2022-12-08T05:23:01.512Z,-0.85
2022-12-08T05:24:01.528Z,-0.85
2022-12-08T05:25:01.541Z,-0.89
2022-12-08T05:26:01.566Z,-0.91
2022-12-08T05:27:01.587Z,-0.93
2022-12-08T05:28:32.648Z,-0.96
2022-12-08T05:29:01.600Z,-0.99
2022-12-08T05:30:01.803Z,-1.01
2022-12-08T05:31:01.627Z,-0.99
2022-12-08T05:32:01.782Z,-1.01
2022-12-08T05:33:01.647Z,-1.05
2022-12-08T05:34:03.440Z,-1.07
2022-12-08T05:35:01.682Z,-1.09
2022-12-08T05:36:01.705Z,-1.15
2022-12-08T05:37:01.735Z,-1.15
2022-12-08T05:38:01.739Z,-1.15
2022-12-08T05:39:01.749Z,-1.12
2022-12-08T05:40:02.210Z,-1.08
2022-12-08T05:41:01.774Z,-1.11
2022-12-08T05:42:01.814Z,-1.11
2022-12-08T05:43:01.803Z,-1.15
2022-12-08T05:44:01.825Z,-1.17
2022-12-08T05:45:01.874Z,-1.15
2022-12-08T05:46:01.957Z,-1.15
2022-12-08T05:47:01.882Z,-1.12
2022-12-08T05:48:01.888Z,-1.08
2022-12-08T05:49:01.892Z,-1.05
2022-12-08T05:50:02.374Z,-1.08
2022-12-08T05:51:01.920Z,-1.12
2022-12-08T05:52:01.956Z,-1.15
2022-12-08T05:53:01.950Z,-1.20
2022-12-08T05:54:01.968Z,-1.25
2022-12-08T05:55:01.986Z,-1.27
2022-12-08T05:56:01.997Z,-1.30
2022-12-08T05:57:02.027Z,-1.37
2022-12-08T05:58:07.694Z,-1.38
2022-12-08T05:59:02.040Z,-1.41
2022-12-08T06:00:02.553Z,-1.43
2022-12-08T06:01:02.065Z,-1.44
2022-12-08T06:02:02.245Z,-1.48
2022-12-08T06:03:02.228Z,-1.50
2022-12-08T06:04:02.115Z,-1.53
2022-12-08T06:05:02.129Z,-1.61
2022-12-08T06:06:02.151Z,-1.64
2022-12-08T06:07:02.185Z,-1.64
2022-12-08T06:08:02.330Z,-1.66
2022-12-08T06:09:02.203Z,-1.68
2022-12-08T06:10:02.778Z,-1.65
2022-12-08T06:11:02.222Z,-1.65
2022-12-08T06:12:02.262Z,-1.66
2022-12-08T06:13:02.252Z,-1.62
2022-12-08T06:14:02.271Z,-1.65
2022-12-08T06:15:02.298Z,-1.64
2022-12-08T06:16:02.304Z,-1.62
2022-12-08T06:17:02.447Z,-1.64
2022-12-08T06:18:02.359Z,-1.65
2022-12-08T06:19:02.366Z,-1.65
2022-12-08T06:20:02.918Z,-1.62
2022-12-08T06:21:02.387Z,-1.62
2022-12-08T06:22:02.428Z,-1.62
2022-12-08T06:23:02.410Z,-1.64
2022-12-08T06:24:02.455Z,-1.66
2022-12-08T06:25:05.929Z,-1.66
2022-12-08T06:26:02.464Z,-1.66
2022-12-08T06:27:02.501Z,-1.65
2022-12-08T06:28:02.494Z,-1.66
2022-12-08T06:29:02.635Z,-1.65
2022-12-08T06:30:02.850Z,-1.68
2022-12-08T06:31:02.526Z,-1.65
2022-12-08T06:32:02.605Z,-1.62
2022-12-08T06:33:02.557Z,-1.62
2022-12-08T06:34:02.583Z,-1.61
2022-12-08T06:35:02.581Z,-1.61
2022-12-08T06:36:02.599Z,-1.62
2022-12-08T06:37:02.637Z,-1.61
2022-12-08T06:38:02.631Z,-1.56
2022-12-08T06:39:02.640Z,-1.47
2022-12-08T06:40:03.118Z,-1.48
2022-12-08T06:41:02.672Z,-1.54
2022-12-08T06:42:02.713Z,-1.59
2022-12-08T06:43:02.700Z,-1.61
2022-12-08T06:44:02.725Z,-1.62
2022-12-08T06:45:02.735Z,-1.61
2022-12-08T06:46:02.808Z,-1.62
2022-12-08T06:47:02.780Z,-1.68
2022-12-08T06:48:02.784Z,-1.74
2022-12-08T06:49:02.815Z,-1.76
2022-12-08T06:50:03.347Z,-1.80
2022-12-08T06:51:02.842Z,-1.82
2022-12-08T06:52:02.870Z,-1.83
2022-12-08T06:53:05.491Z,-1.83
2022-12-08T06:54:02.876Z,-1.87
2022-12-08T06:55:02.910Z,-1.87
2022-12-08T06:56:02.909Z,-1.90
2022-12-08T06:57:02.948Z,-1.90
2022-12-08T06:58:02.939Z,-1.87
2022-12-08T06:59:02.954Z,-1.89
2022-12-08T07:00:03.542Z,-1.86
2022-12-08T07:01:03.113Z,-1.86
2022-12-08T07:02:03.106Z,-1.83
2022-12-08T07:03:03.150Z,-1.79
2022-12-08T07:04:03.021Z,-1.68
2022-12-08T07:05:03.041Z,-1.53
2022-12-08T07:06:04.352Z,-1.46
2022-12-08T07:07:03.087Z,-1.40
2022-12-08T07:08:03.147Z,-1.37
2022-12-08T07:09:03.096Z,-1.30
2022-12-08T07:10:03.600Z,-1.26
2022-12-08T07:11:03.129Z,-1.22
2022-12-08T07:12:03.164Z,-1.15
2022-12-08T07:13:03.171Z,-1.12
2022-12-08T07:14:03.179Z,-1.08
2022-12-08T07:15:03.200Z,-1.08
2022-12-08T07:16:03.206Z,-1.09
2022-12-08T07:17:03.353Z,-1.14
2022-12-08T07:18:03.235Z,-1.15
2022-12-08T07:19:03.260Z,-1.19
2022-12-08T07:20:03.669Z,-1.25
2022-12-08T07:21:03.289Z,-1.29
2022-12-08T07:22:03.341Z,-1.35
2022-12-08T07:23:03.329Z,-1.40
2022-12-08T07:24:03.338Z,-1.41
2022-12-08T07:25:03.364Z,-1.43
2022-12-08T07:26:03.367Z,-1.44
2022-12-08T07:27:03.404Z,-1.44
2022-12-08T07:28:03.391Z,-1.41
2022-12-08T07:29:03.412Z,-1.37
2022-12-08T07:30:03.729Z,-1.35
2022-12-08T07:31:03.484Z,-1.33
2022-12-08T07:32:03.461Z,-1.29
2022-12-08T07:33:03.466Z,-1.27
2022-12-08T07:34:03.473Z,-1.26
2022-12-08T07:35:03.491Z,-1.22
2022-12-08T07:36:03.502Z,-1.19
2022-12-08T07:37:03.550Z,-1.17
2022-12-08T07:38:03.528Z,-1.17
2022-12-08T07:39:03.550Z,-1.19
2022-12-08T07:40:03.897Z,-1.15
2022-12-08T07:41:03.575Z,-1.17
2022-12-08T07:42:03.600Z,-1.19
2022-12-08T07:43:03.604Z,-1.19
2022-12-08T07:44:03.619Z,-1.15
2022-12-08T07:45:03.635Z,-1.14
2022-12-08T07:46:03.678Z,-1.08
2022-12-08T07:47:03.684Z,-1.08
2022-12-08T07:48:03.675Z,-1.07
2022-12-08T07:49:03.695Z,-1.04
2022-12-08T07:50:04.334Z,-1.01
2022-12-08T07:51:03.722Z,-0.97
2022-12-08T07:52:03.753Z,-0.93
2022-12-08T07:53:03.751Z,-0.91
2022-12-08T07:54:03.760Z,-0.91
2022-12-08T07:55:03.774Z,-0.89
2022-12-08T07:56:03.786Z,-0.86
2022-12-08T07:57:03.824Z,-0.86
2022-12-08T07:58:03.819Z,-0.85
2022-12-08T07:59:03.836Z,-0.82
2022-12-08T08:00:04.310Z,-0.78
2022-12-08T08:01:04.012Z,-0.77
2022-12-08T08:02:23.026Z,-0.74
2022-12-08T08:03:04.085Z,-0.61
2022-12-08T08:04:04.005Z,-0.47
2022-12-08T08:05:03.992Z,-0.36
2022-12-08T08:06:03.933Z,-0.29
2022-12-08T08:07:03.970Z,-0.26
2022-12-08T08:08:04.121Z,-0.25
2022-12-08T08:09:03.987Z,-0.17
2022-12-08T08:10:04.259Z,-0.13
2022-12-08T08:11:11.303Z,-0.13
2022-12-08T08:12:29.615Z,-0.18
2022-12-08T08:13:04.053Z,-0.21
2022-12-08T08:14:04.049Z,-0.20
2022-12-08T08:15:04.074Z,-0.17
2022-12-08T08:16:04.135Z,-0.13
2022-12-08T08:17:04.343Z,-0.06
2022-12-08T08:18:04.111Z,0.03
2022-12-08T08:19:04.131Z,0.08
2022-12-08T08:20:04.471Z,0.15
2022-12-08T08:21:22.213Z,0.16
2022-12-08T08:22:04.200Z,0.21
2022-12-08T08:23:04.224Z,0.19
2022-12-08T08:24:04.205Z,0.16
2022-12-08T08:25:04.235Z,0.05
2022-12-08T08:26:04.264Z,-0.02
2022-12-08T08:27:04.278Z,-0.10
2022-12-08T08:28:04.260Z,-0.13
2022-12-08T08:29:04.274Z,-0.13
2022-12-08T08:30:04.595Z,-0.07
2022-12-08T08:31:04.409Z,-0.02
2022-12-08T08:32:04.333Z,0.05
2022-12-08T08:33:04.342Z,0.12
2022-12-08T08:34:04.375Z,0.19
2022-12-08T08:35:04.378Z,0.21
2022-12-08T08:36:04.384Z,0.21
2022-12-08T08:37:04.490Z,0.22
2022-12-08T08:38:04.415Z,0.19
2022-12-08T08:39:04.445Z,0.22
2022-12-08T08:40:04.705Z,0.23
2022-12-08T08:41:04.481Z,0.21
2022-12-08T08:42:04.510Z,0.21
2022-12-08T08:43:04.533Z,0.18
2022-12-08T08:44:04.530Z,0.21
2022-12-08T08:45:04.551Z,0.22
2022-12-08T08:46:04.603Z,0.29
2022-12-08T08:47:04.600Z,0.40
2022-12-08T08:48:10.584Z,0.47
2022-12-08T08:49:04.612Z,0.58
2022-12-08T08:50:05.028Z,0.62
2022-12-08T08:51:04.651Z,0.65
2022-12-08T08:52:04.687Z,0.63
2022-12-08T08:53:04.688Z,0.56
2022-12-08T08:54:04.708Z,0.47
2022-12-08T08:55:04.723Z,0.46
2022-12-08T08:56:04.739Z,0.50
2022-12-08T08:57:04.778Z,0.56
2022-12-08T08:58:04.774Z,0.62
2022-12-08T08:59:04.803Z,0.65
2022-12-08T09:00:05.151Z,0.69
2022-12-08T09:01:04.823Z,0.76
2022-12-08T09:02:04.915Z,0.83
2022-12-08T09:03:04.866Z,0.88
2022-12-08T09:04:04.971Z,0.96
2022-12-08T09:05:04.983Z,1.02
2022-12-08T09:06:05.037Z,1.05
2022-12-08T09:07:04.933Z,1.05
2022-12-08T09:08:04.997Z,0.99
2022-12-08T09:09:04.967Z,0.98
2022-12-08T09:10:05.369Z,0.95
2022-12-08T09:11:05.011Z,0.87
2022-12-08T09:12:05.025Z,0.86
2022-12-08T09:13:05.045Z,0.86
2022-12-08T09:14:05.057Z,0.87
2022-12-08T09:15:05.077Z,0.87
2022-12-08T09:16:05.184Z,0.91
2022-12-08T09:17:05.121Z,0.92
2022-12-08T09:18:05.133Z,0.92
2022-12-08T09:19:05.153Z,0.92
2022-12-08T09:20:05.513Z,0.91
2022-12-08T09:21:05.198Z,0.92
2022-12-08T09:22:05.216Z,0.94
2022-12-08T09:23:05.236Z,0.94
2022-12-08T09:24:05.248Z,0.94
2022-12-08T09:25:05.269Z,1.01
2022-12-08T09:26:05.282Z,1.05
2022-12-08T09:27:05.307Z,1.06
2022-12-08T09:28:05.322Z,1.08
2022-12-08T09:29:05.342Z,1.10
2022-12-08T09:30:05.720Z,1.12
2022-12-08T09:31:05.484Z,1.13
2022-12-08T09:32:05.401Z,1.20
2022-12-08T09:33:05.420Z,1.22
2022-12-08T09:34:05.436Z,1.24
2022-12-08T09:35:05.557Z,1.26
2022-12-08T09:36:05.468Z,1.32
2022-12-08T09:37:05.492Z,1.35
2022-12-08T09:38:05.505Z,1.37
2022-12-08T09:39:05.526Z,1.35
2022-12-08T09:40:05.776Z,1.32
2022-12-08T09:41:05.564Z,1.28
2022-12-08T09:42:05.583Z,1.28
2022-12-08T09:43:05.602Z,1.23
2022-12-08T09:44:05.614Z,1.26
2022-12-08T09:45:05.650Z,1.23
2022-12-08T09:46:05.731Z,1.19
2022-12-08T09:47:05.777Z,1.19
2022-12-08T09:48:05.678Z,1.22
2022-12-08T09:49:05.694Z,1.24
2022-12-08T09:50:05.916Z,1.26
2022-12-08T09:51:05.727Z,1.22
2022-12-08T09:52:05.759Z,1.23
2022-12-08T09:53:05.762Z,1.24
2022-12-08T09:54:05.773Z,1.30
2022-12-08T09:55:05.798Z,1.30
2022-12-08T09:56:05.815Z,1.32
2022-12-08T09:57:05.857Z,1.32
2022-12-08T09:58:05.843Z,1.35
2022-12-08T09:59:05.859Z,1.35
2022-12-08T10:00:06.200Z,1.35
2022-12-08T10:01:05.897Z,1.34
2022-12-08T10:02:06.003Z,1.38
2022-12-08T10:03:05.931Z,1.37
2022-12-08T10:04:05.948Z,1.35
2022-12-08T10:05:06.055Z,1.35
2022-12-08T10:06:05.982Z,1.37
2022-12-08T10:07:06.020Z,1.34
2022-12-08T10:08:06.062Z,1.38
2022-12-08T10:09:08.791Z,1.41
2022-12-08T10:10:06.278Z,1.45
2022-12-08T10:11:06.062Z,1.45
2022-12-08T10:12:06.092Z,1.48
2022-12-08T10:13:06.122Z,1.44
2022-12-08T10:14:06.097Z,1.42
2022-12-08T10:15:06.117Z,1.44
2022-12-08T10:16:06.180Z,1.48
2022-12-08T10:17:06.302Z,1.50
2022-12-08T10:18:06.157Z,1.53
2022-12-08T10:19:06.177Z,1.52
2022-12-08T10:20:06.681Z,1.53
2022-12-08T10:21:06.214Z,1.55
2022-12-08T10:22:06.238Z,1.59
2022-12-08T10:23:06.244Z,1.63
2022-12-08T10:24:06.248Z,1.60
2022-12-08T10:25:06.266Z,1.59
2022-12-08T10:26:06.382Z,1.63
2022-12-08T10:27:06.315Z,1.68
2022-12-08T10:28:06.299Z,1.68
2022-12-08T10:29:06.322Z,1.66
2022-12-08T10:30:06.683Z,1.62
2022-12-08T10:31:06.476Z,1.58
2022-12-08T10:32:06.414Z,1.59
2022-12-08T10:33:06.451Z,1.56
2022-12-08T10:34:06.413Z,1.55
2022-12-08T10:35:06.475Z,1.56
2022-12-08T10:36:06.451Z,1.59
2022-12-08T10:37:06.496Z,1.66
2022-12-08T10:38:06.484Z,1.68
2022-12-08T10:39:06.507Z,1.68
2022-12-08T10:40:06.788Z,1.66
2022-12-08T10:41:06.546Z,1.67
2022-12-08T10:42:06.581Z,1.67
2022-12-08T10:43:06.588Z,1.66
2022-12-08T10:44:06.676Z,1.73
2022-12-08T10:45:06.616Z,1.74
2022-12-08T10:46:06.748Z,1.81
2022-12-08T10:47:06.752Z,1.78
2022-12-08T10:48:06.677Z,1.81
2022-12-08T10:49:06.704Z,1.81
2022-12-08T10:50:07.125Z,1.84
2022-12-08T10:51:06.734Z,1.85
2022-12-08T10:52:06.780Z,1.87
2022-12-08T10:53:06.775Z,1.88
2022-12-08T10:54:06.796Z,1.89
2022-12-08T10:55:06.817Z,1.97
2022-12-08T10:56:06.837Z,1.97
2022-12-08T10:57:06.858Z,1.94
2022-12-08T10:58:06.866Z,1.92
2022-12-08T10:59:06.887Z,1.87
2022-12-08T11:00:12.453Z,1.84
2022-12-08T11:01:07.003Z,1.85
2022-12-08T11:02:07.155Z,1.85
2022-12-08T11:03:07.029Z,1.81
2022-12-08T11:04:06.981Z,1.81
2022-12-08T11:05:07.000Z,1.85
2022-12-08T11:06:10.852Z,1.88
2022-12-08T11:07:07.031Z,1.88
2022-12-08T11:08:07.112Z,1.91
2022-12-08T11:09:07.075Z,1.92
2022-12-08T11:10:07.526Z,1.94
2022-12-08T11:11:07.098Z,1.99
2022-12-08T11:12:07.139Z,2.00
2022-12-08T11:13:07.131Z,1.89
2022-12-08T11:14:07.154Z,1.84
2022-12-08T11:15:07.170Z,1.81
2022-12-08T11:16:07.284Z,1.84
2022-12-08T11:17:07.246Z,1.87
2022-12-08T11:18:07.234Z,1.89
2022-12-08T11:19:07.249Z,1.91
2022-12-08T11:20:07.516Z,1.95
2022-12-08T11:21:07.280Z,1.97
2022-12-08T11:22:07.326Z,1.97
2022-12-08T11:23:07.321Z,1.99
2022-12-08T11:24:07.346Z,2.00
2022-12-08T11:25:07.354Z,2.06
2022-12-08T11:26:07.371Z,2.10
2022-12-08T11:27:07.397Z,2.14
2022-12-08T11:28:07.404Z,2.20
2022-12-08T11:29:07.427Z,2.20
2022-12-08T11:30:12.599Z,2.26
2022-12-08T11:31:07.532Z,2.31
2022-12-08T11:32:07.525Z,2.31
2022-12-08T11:33:07.486Z,2.33
2022-12-08T11:34:07.506Z,2.39
2022-12-08T11:35:07.551Z,2.36
2022-12-08T11:36:07.582Z,2.35
2022-12-08T11:37:07.567Z,2.38
2022-12-08T11:38:21.101Z,2.38
2022-12-08T11:39:07.595Z,2.33
2022-12-08T11:40:08.001Z,2.33
2022-12-08T11:41:12.460Z,2.33
2022-12-08T11:42:07.643Z,2.31
2022-12-08T11:43:07.649Z,2.31
2022-12-08T11:44:07.677Z,2.32
2022-12-08T11:45:07.917Z,2.29
2022-12-08T11:46:07.790Z,2.31
2022-12-08T11:47:07.717Z,2.31
2022-12-08T11:48:07.739Z,2.33
2022-12-08T11:49:07.743Z,2.39
2022-12-08T11:50:07.947Z,2.43
2022-12-08T11:51:07.803Z,2.43
2022-12-08T11:52:07.797Z,2.49
2022-12-08T11:53:07.812Z,2.51
2022-12-08T11:54:07.833Z,2.51
2022-12-08T11:55:07.854Z,2.51
2022-12-08T11:56:07.908Z,2.50
2022-12-08T11:57:07.884Z,2.53
2022-12-08T11:58:08.000Z,2.60
2022-12-08T11:59:07.909Z,2.60
2022-12-08T12:00:08.215Z,2.53
2022-12-08T12:01:07.961Z,2.47
2022-12-08T12:02:08.011Z,2.51
2022-12-08T12:03:08.062Z,2.57
2022-12-08T12:04:07.991Z,2.62
2022-12-08T12:05:08.007Z,2.64
2022-12-08T12:06:23.977Z,2.67
2022-12-08T12:07:08.045Z,2.68
2022-12-08T12:08:08.130Z,2.69
2022-12-08T12:09:08.082Z,2.72
2022-12-08T12:10:08.347Z,2.72
2022-12-08T12:11:08.158Z,2.71
2022-12-08T12:12:08.140Z,2.68
2022-12-08T12:13:08.155Z,2.56
2022-12-08T12:14:08.187Z,2.50
2022-12-08T12:15:08.182Z,2.54
2022-12-08T12:16:08.230Z,2.50
2022-12-08T12:17:08.323Z,2.47
2022-12-08T12:18:12.009Z,2.50
2022-12-08T12:19:08.258Z,2.50
2022-12-08T12:20:08.385Z,2.53
2022-12-08T12:21:08.321Z,2.54
2022-12-08T12:22:08.310Z,2.53
2022-12-08T12:23:08.328Z,2.46
2022-12-08T12:24:08.349Z,2.39
2022-12-08T12:25:08.355Z,2.43
2022-12-08T12:26:08.395Z,2.47
2022-12-08T12:27:08.389Z,2.47
2022-12-08T12:28:08.414Z,2.42
2022-12-08T12:29:08.495Z,2.39
2022-12-08T12:30:08.740Z,2.43
2022-12-08T12:31:08.595Z,2.39
2022-12-08T12:32:08.473Z,2.47
2022-12-08T12:33:08.477Z,2.50
2022-12-08T12:34:08.519Z,2.49
2022-12-08T12:35:08.508Z,2.47
2022-12-08T12:36:08.555Z,2.46
2022-12-08T12:37:08.542Z,2.50
2022-12-08T12:38:08.566Z,2.54
2022-12-08T12:39:08.571Z,2.53
2022-12-08T12:40:08.927Z,2.53
2022-12-08T12:41:08.628Z,2.56
2022-12-08T12:42:08.623Z,2.56
2022-12-08T12:43:08.630Z,2.57
2022-12-08T12:44:08.745Z,2.61
2022-12-08T12:45:08.658Z,2.57
2022-12-08T12:46:08.764Z,2.60
2022-12-08T12:47:08.687Z,2.62
2022-12-08T12:48:08.707Z,2.62
2022-12-08T12:49:08.716Z,2.61
2022-12-08T12:50:08.745Z,2.65
2022-12-08T12:51:08.783Z,2.64
2022-12-08T12:52:08.771Z,2.67
2022-12-08T12:53:13.756Z,2.67
2022-12-08T12:54:08.817Z,2.65
2022-12-08T12:55:08.815Z,2.67
2022-12-08T12:56:08.849Z,2.65
2022-12-08T12:57:08.845Z,2.57
2022-12-08T12:58:08.866Z,2.51
2022-12-08T12:59:08.883Z,2.50
2022-12-08T13:00:09.235Z,2.49
2022-12-08T13:01:09.015Z,2.46
2022-12-08T13:02:08.997Z,2.47
2022-12-08T13:03:08.949Z,2.47
2022-12-08T13:04:08.977Z,2.50
2022-12-08T13:05:08.987Z,2.46
2022-12-08T13:06:14.243Z,2.39
2022-12-08T13:07:09.019Z,2.38
2022-12-08T13:08:09.112Z,2.42
2022-12-08T13:09:09.049Z,2.42
2022-12-08T13:10:09.072Z,2.42
2022-12-08T13:11:09.118Z,2.42
2022-12-08T13:12:09.106Z,2.46
2022-12-08T13:13:09.123Z,2.47